sensor_id;sensor_type;location;lat;lon;timestamp;P1;durP1;ratioP1;P2;durP2;ratioP2
11086;SDS011;5597;47.588;9.642;2022-12-22T00:00:22;4.90;;;4.40;;
11086;SDS011;5597;47.588;9.642;2022-12-22T00:03:09;5.30;;;4.80;;
11086;SDS011;5597;47.588;9.642;2022-12-22T00:05:55;4.87;;;4.30;;
11086;SDS011;5597;47.588;9.642;2022-12-22T00:08:39;5.23;;;4.30;;
11086;SDS011;5597;47.588;9.642;2022-12-22T00:11:23;5.27;;;4.40;;
11086;SDS011;5597;47.588;9.642;2022-12-22T00:14:08;4.77;;;4.20;;
11086;SDS011;5597;47.588;9.642;2022-12-22T00:17:01;5.03;;;4.53;;
11086;SDS011;5597;47.588;9.642;2022-12-22T00:19:45;5.00;;;4.37;;
11086;SDS011;5597;47.588;9.642;2022-12-22T00:22:29;5.00;;;4.50;;
11086;SDS011;5597;47.588;9.642;2022-12-22T00:25:14;4.50;;;4.03;;
11086;SDS011;5597;47.588;9.642;2022-12-22T00:27:59;4.93;;;4.37;;
11086;SDS011;5597;47.588;9.642;2022-12-22T00:30:45;5.37;;;4.40;;
11086;SDS011;5597;47.588;9.642;2022-12-22T00:33:29;5.90;;;4.23;;
11086;SDS011;5597;47.588;9.642;2022-12-22T00:36:13;4.70;;;3.87;;
11086;SDS011;5597;47.588;9.642;2022-12-22T00:38:58;5.27;;;4.30;;
11086;SDS011;5597;47.588;9.642;2022-12-22T00:41:42;5.20;;;4.10;;
11086;SDS011;5597;47.588;9.642;2022-12-22T00:44:26;5.40;;;4.00;;
11086;SDS011;5597;47.588;9.642;2022-12-22T00:47:14;5.20;;;4.30;;
11086;SDS011;5597;47.588;9.642;2022-12-22T00:50:07;4.80;;;4.30;;
11086;SDS011;5597;47.588;9.642;2022-12-22T00:52:52;4.80;;;4.00;;
11086;SDS011;5597;47.588;9.642;2022-12-22T00:55:37;5.30;;;4.40;;
11086;SDS011;5597;47.588;9.642;2022-12-22T00:58:21;5.73;;;4.60;;
11086;SDS011;5597;47.588;9.642;2022-12-22T01:01:05;4.97;;;4.47;;
11086;SDS011;5597;47.588;9.642;2022-12-22T01:03:51;4.90;;;4.33;;
11086;SDS011;5597;47.588;9.642;2022-12-22T01:06:35;5.33;;;4.80;;
11086;SDS011;5597;47.588;9.642;2022-12-22T01:09:19;4.90;;;4.40;;
11086;SDS011;5597;47.588;9.642;2022-12-22T01:12:08;5.00;;;4.10;;
11086;SDS011;5597;47.588;9.642;2022-12-22T01:14:56;4.63;;;4.20;;
11086;SDS011;5597;47.588;9.642;2022-12-22T01:17:40;4.80;;;3.87;;
11086;SDS011;5597;47.588;9.642;2022-12-22T01:20:24;4.13;;;3.73;;
11086;SDS011;5597;47.588;9.642;2022-12-22T01:23:09;4.70;;;4.20;;
11086;SDS011;5597;47.588;9.642;2022-12-22T01:25:54;5.30;;;4.70;;
11086;SDS011;5597;47.588;9.642;2022-12-22T01:28:38;5.37;;;4.17;;
11086;SDS011;5597;47.588;9.642;2022-12-22T01:31:27;4.67;;;4.27;;
11086;SDS011;5597;47.588;9.642;2022-12-22T01:34:13;4.97;;;4.07;;
11086;SDS011;5597;47.588;9.642;2022-12-22T01:36:57;6.03;;;4.17;;
11086;SDS011;5597;47.588;9.642;2022-12-22T01:39:42;4.50;;;3.77;;
11086;SDS011;5597;47.588;9.642;2022-12-22T01:42:26;5.03;;;3.77;;
11086;SDS011;5597;47.588;9.642;2022-12-22T01:45:27;3.70;;;3.30;;
11086;SDS011;5597;47.588;9.642;2022-12-22T01:48:14;3.93;;;3.37;;
11086;SDS011;5597;47.588;9.642;2022-12-22T01:51:07;3.73;;;3.20;;
11086;SDS011;5597;47.588;9.642;2022-12-22T01:53:54;3.50;;;3.20;;
11086;SDS011;5597;47.588;9.642;2022-12-22T01:56:40;3.97;;;3.00;;
11086;SDS011;5597;47.588;9.642;2022-12-22T01:59:25;3.20;;;2.90;;
11086;SDS011;5597;47.588;9.642;2022-12-22T02:02:09;3.77;;;3.10;;
11086;SDS011;5597;47.588;9.642;2022-12-22T02:04:55;4.13;;;3.00;;
11086;SDS011;5597;47.588;9.642;2022-12-22T02:17:00;2.80;;;2.60;;
11086;SDS011;5597;47.588;9.642;2022-12-22T02:20:15;2.97;;;2.67;;
11086;SDS011;5597;47.588;9.642;2022-12-22T02:26:22;3.33;;;3.00;;
11086;SDS011;5597;47.588;9.642;2022-12-22T02:29:12;3.20;;;2.80;;
11086;SDS011;5597;47.588;9.642;2022-12-22T02:31:58;2.83;;;2.50;;
11086;SDS011;5597;47.588;9.642;2022-12-22T02:34:42;3.43;;;2.73;;
11086;SDS011;5597;47.588;9.642;2022-12-22T02:43:20;3.20;;;2.87;;
11086;SDS011;5597;47.588;9.642;2022-12-22T02:46:25;3.17;;;2.60;;
11086;SDS011;5597;47.588;9.642;2022-12-22T02:49:21;3.17;;;2.83;;
11086;SDS011;5597;47.588;9.642;2022-12-22T02:52:21;3.20;;;2.90;;
11086;SDS011;5597;47.588;9.642;2022-12-22T02:55:11;3.53;;;2.77;;
11086;SDS011;5597;47.588;9.642;2022-12-22T02:57:57;3.40;;;2.90;;
11086;SDS011;5597;47.588;9.642;2022-12-22T03:00:42;2.80;;;2.50;;
11086;SDS011;5597;47.588;9.642;2022-12-22T03:03:26;2.97;;;2.63;;
11086;SDS011;5597;47.588;9.642;2022-12-22T03:06:10;3.50;;;2.33;;
11086;SDS011;5597;47.588;9.642;2022-12-22T03:08:54;3.47;;;2.83;;
11086;SDS011;5597;47.588;9.642;2022-12-22T03:11:38;4.23;;;2.83;;
11086;SDS011;5597;47.588;9.642;2022-12-22T03:14:22;3.43;;;3.07;;
11086;SDS011;5597;47.588;9.642;2022-12-22T03:17:07;3.87;;;2.93;;
11086;SDS011;5597;47.588;9.642;2022-12-22T03:19:51;2.87;;;2.50;;
11086;SDS011;5597;47.588;9.642;2022-12-22T03:22:35;3.27;;;2.97;;
11086;SDS011;5597;47.588;9.642;2022-12-22T03:25:19;3.50;;;2.97;;
11086;SDS011;5597;47.588;9.642;2022-12-22T03:28:03;2.50;;;2.27;;
11086;SDS011;5597;47.588;9.642;2022-12-22T03:30:30;3.40;;;2.40;;
11086;SDS011;5597;47.588;9.642;2022-12-22T03:32:56;2.87;;;2.53;;
11086;SDS011;5597;47.588;9.642;2022-12-22T03:35:22;2.90;;;2.57;;
11086;SDS011;5597;47.588;9.642;2022-12-22T03:37:48;3.37;;;2.70;;
11086;SDS011;5597;47.588;9.642;2022-12-22T03:40:13;2.53;;;2.33;;
11086;SDS011;5597;47.588;9.642;2022-12-22T03:42:39;2.50;;;2.30;;
11086;SDS011;5597;47.588;9.642;2022-12-22T03:45:23;3.20;;;2.70;;
11086;SDS011;5597;47.588;9.642;2022-12-22T03:48:07;2.47;;;2.17;;
11086;SDS011;5597;47.588;9.642;2022-12-22T03:50:32;3.00;;;2.40;;
11086;SDS011;5597;47.588;9.642;2022-12-22T03:52:58;2.80;;;2.47;;
11086;SDS011;5597;47.588;9.642;2022-12-22T03:55:24;2.57;;;2.37;;
11086;SDS011;5597;47.588;9.642;2022-12-22T03:57:49;2.17;;;1.97;;
11086;SDS011;5597;47.588;9.642;2022-12-22T04:00:15;2.20;;;2.00;;
11086;SDS011;5597;47.588;9.642;2022-12-22T04:02:41;2.23;;;1.90;;
11086;SDS011;5597;47.588;9.642;2022-12-22T04:05:07;3.17;;;2.60;;
11086;SDS011;5597;47.588;9.642;2022-12-22T04:07:33;2.60;;;2.10;;
11086;SDS011;5597;47.588;9.642;2022-12-22T04:09:58;2.43;;;2.23;;
11086;SDS011;5597;47.588;9.642;2022-12-22T04:12:42;3.93;;;2.73;;
11086;SDS011;5597;47.588;9.642;2022-12-22T04:15:23;2.77;;;2.47;;
11086;SDS011;5597;47.588;9.642;2022-12-22T04:17:54;2.70;;;2.50;;
11086;SDS011;5597;47.588;9.642;2022-12-22T04:20:20;3.07;;;2.37;;
11086;SDS011;5597;47.588;9.642;2022-12-22T04:22:47;3.30;;;2.90;;
11086;SDS011;5597;47.588;9.642;2022-12-22T04:25:13;4.03;;;3.60;;
11086;SDS011;5597;47.588;9.642;2022-12-22T04:27:39;6.03;;;4.40;;
11086;SDS011;5597;47.588;9.642;2022-12-22T04:30:05;6.20;;;4.80;;
11086;SDS011;5597;47.588;9.642;2022-12-22T04:32:32;5.47;;;4.90;;
11086;SDS011;5597;47.588;9.642;2022-12-22T04:34:58;7.43;;;5.67;;
11086;SDS011;5597;47.588;9.642;2022-12-22T04:37:24;6.50;;;5.77;;
11086;SDS011;5597;47.588;9.642;2022-12-22T04:39:49;6.40;;;5.47;;
11086;SDS011;5597;47.588;9.642;2022-12-22T04:42:15;6.07;;;5.00;;
11086;SDS011;5597;47.588;9.642;2022-12-22T04:44:41;5.57;;;4.63;;
11086;SDS011;5597;47.588;9.642;2022-12-22T04:47:06;5.60;;;4.47;;
11086;SDS011;5597;47.588;9.642;2022-12-22T04:49:32;4.70;;;3.93;;
11086;SDS011;5597;47.588;9.642;2022-12-22T04:51:57;3.90;;;3.43;;
11086;SDS011;5597;47.588;9.642;2022-12-22T04:54:23;3.60;;;2.83;;
11086;SDS011;5597;47.588;9.642;2022-12-22T04:56:49;2.80;;;2.47;;
11086;SDS011;5597;47.588;9.642;2022-12-22T04:59:14;2.57;;;2.20;;
11086;SDS011;5597;47.588;9.642;2022-12-22T05:01:40;2.80;;;2.10;;
11086;SDS011;5597;47.588;9.642;2022-12-22T05:04:06;2.53;;;2.33;;
11086;SDS011;5597;47.588;9.642;2022-12-22T05:06:31;2.87;;;2.20;;
11086;SDS011;5597;47.588;9.642;2022-12-22T05:08:57;2.13;;;1.90;;
11086;SDS011;5597;47.588;9.642;2022-12-22T05:11:23;1.90;;;1.70;;
11086;SDS011;5597;47.588;9.642;2022-12-22T05:13:48;2.93;;;2.17;;
11086;SDS011;5597;47.588;9.642;2022-12-22T05:16:15;1.80;;;1.60;;
11086;SDS011;5597;47.588;9.642;2022-12-22T05:18:41;3.73;;;2.30;;
11086;SDS011;5597;47.588;9.642;2022-12-22T05:21:15;2.97;;;2.17;;
11086;SDS011;5597;47.588;9.642;2022-12-22T05:23:43;2.40;;;2.20;;
11086;SDS011;5597;47.588;9.642;2022-12-22T05:26:09;2.70;;;2.00;;
11086;SDS011;5597;47.588;9.642;2022-12-22T05:28:38;3.10;;;2.00;;
11086;SDS011;5597;47.588;9.642;2022-12-22T05:31:05;3.03;;;2.23;;
11086;SDS011;5597;47.588;9.642;2022-12-22T05:33:32;2.17;;;1.97;;
11086;SDS011;5597;47.588;9.642;2022-12-22T05:35:58;2.47;;;1.87;;
11086;SDS011;5597;47.588;9.642;2022-12-22T05:38:23;2.30;;;2.03;;
11086;SDS011;5597;47.588;9.642;2022-12-22T05:40:49;2.10;;;1.90;;
11086;SDS011;5597;47.588;9.642;2022-12-22T05:43:14;2.20;;;2.00;;
11086;SDS011;5597;47.588;9.642;2022-12-22T05:45:41;2.87;;;1.90;;
11086;SDS011;5597;47.588;9.642;2022-12-22T05:48:08;2.70;;;1.63;;
11086;SDS011;5597;47.588;9.642;2022-12-22T05:50:34;1.97;;;1.57;;
11086;SDS011;5597;47.588;9.642;2022-12-22T05:53:00;2.10;;;1.70;;
11086;SDS011;5597;47.588;9.642;2022-12-22T05:55:25;3.20;;;2.80;;
11086;SDS011;5597;47.588;9.642;2022-12-22T05:57:51;5.20;;;4.70;;
11086;SDS011;5597;47.588;9.642;2022-12-22T06:00:16;4.57;;;4.17;;
11086;SDS011;5597;47.588;9.642;2022-12-22T06:02:43;4.10;;;3.70;;
11086;SDS011;5597;47.588;9.642;2022-12-22T06:05:09;3.43;;;3.13;;
11086;SDS011;5597;47.588;9.642;2022-12-22T06:07:36;3.00;;;2.70;;
11086;SDS011;5597;47.588;9.642;2022-12-22T06:10:03;3.70;;;2.77;;
11086;SDS011;5597;47.588;9.642;2022-12-22T06:12:29;9.87;;;5.20;;
11086;SDS011;5597;47.588;9.642;2022-12-22T06:14:55;8.23;;;5.43;;
11086;SDS011;5597;47.588;9.642;2022-12-22T06:17:21;8.20;;;4.70;;
11086;SDS011;5597;47.588;9.642;2022-12-22T06:19:46;6.53;;;4.10;;
11086;SDS011;5597;47.588;9.642;2022-12-22T06:22:12;3.23;;;2.87;;
11086;SDS011;5597;47.588;9.642;2022-12-22T06:24:38;2.27;;;2.07;;
11086;SDS011;5597;47.588;9.642;2022-12-22T06:27:03;2.70;;;2.50;;
11086;SDS011;5597;47.588;9.642;2022-12-22T06:29:29;3.67;;;2.17;;
11086;SDS011;5597;47.588;9.642;2022-12-22T06:31:54;2.70;;;2.20;;
11086;SDS011;5597;47.588;9.642;2022-12-22T06:34:20;2.97;;;2.40;;
11086;SDS011;5597;47.588;9.642;2022-12-22T06:36:46;3.23;;;2.17;;
11086;SDS011;5597;47.588;9.642;2022-12-22T06:39:12;2.23;;;2.03;;
11086;SDS011;5597;47.588;9.642;2022-12-22T06:41:39;3.00;;;1.97;;
11086;SDS011;5597;47.588;9.642;2022-12-22T06:44:23;2.20;;;2.00;;
11086;SDS011;5597;47.588;9.642;2022-12-22T06:46:49;4.40;;;2.00;;
11086;SDS011;5597;47.588;9.642;2022-12-22T06:49:15;2.07;;;1.70;;
11086;SDS011;5597;47.588;9.642;2022-12-22T06:51:41;2.77;;;2.10;;
11086;SDS011;5597;47.588;9.642;2022-12-22T06:54:06;2.97;;;1.80;;
11086;SDS011;5597;47.588;9.642;2022-12-22T06:56:32;2.47;;;1.80;;
11086;SDS011;5597;47.588;9.642;2022-12-22T06:58:58;2.27;;;2.07;;
11086;SDS011;5597;47.588;9.642;2022-12-22T07:01:23;2.17;;;1.80;;
11086;SDS011;5597;47.588;9.642;2022-12-22T07:03:49;2.30;;;1.70;;
11086;SDS011;5597;47.588;9.642;2022-12-22T07:06:15;2.23;;;1.70;;
11086;SDS011;5597;47.588;9.642;2022-12-22T07:08:43;2.10;;;1.87;;
11086;SDS011;5597;47.588;9.642;2022-12-22T07:11:09;2.23;;;1.80;;
11086;SDS011;5597;47.588;9.642;2022-12-22T07:13:34;2.87;;;2.10;;
11086;SDS011;5597;47.588;9.642;2022-12-22T07:16:00;3.37;;;1.77;;
11086;SDS011;5597;47.588;9.642;2022-12-22T07:18:28;1.97;;;1.50;;
11086;SDS011;5597;47.588;9.642;2022-12-22T07:20:55;2.53;;;1.80;;
11086;SDS011;5597;47.588;9.642;2022-12-22T07:23:21;2.30;;;1.80;;
11086;SDS011;5597;47.588;9.642;2022-12-22T07:25:47;5.10;;;2.20;;
11086;SDS011;5597;47.588;9.642;2022-12-22T07:28:12;2.37;;;1.80;;
11086;SDS011;5597;47.588;9.642;2022-12-22T07:30:38;3.10;;;2.13;;
11086;SDS011;5597;47.588;9.642;2022-12-22T07:33:03;1.80;;;1.70;;
11086;SDS011;5597;47.588;9.642;2022-12-22T07:35:29;2.07;;;1.73;;
11086;SDS011;5597;47.588;9.642;2022-12-22T07:37:54;2.53;;;1.73;;
11086;SDS011;5597;47.588;9.642;2022-12-22T07:40:20;1.90;;;1.60;;
11086;SDS011;5597;47.588;9.642;2022-12-22T07:42:45;1.93;;;1.73;;
11086;SDS011;5597;47.588;9.642;2022-12-22T07:45:12;2.17;;;1.97;;
11086;SDS011;5597;47.588;9.642;2022-12-22T07:47:39;2.50;;;2.10;;
11086;SDS011;5597;47.588;9.642;2022-12-22T07:50:05;1.57;;;1.47;;
11086;SDS011;5597;47.588;9.642;2022-12-22T07:55:22;2.00;;;1.80;;
11086;SDS011;5597;47.588;9.642;2022-12-22T07:57:48;2.80;;;1.70;;
11086;SDS011;5597;47.588;9.642;2022-12-22T08:00:14;1.73;;;1.53;;
11086;SDS011;5597;47.588;9.642;2022-12-22T08:02:40;3.30;;;1.90;;
11086;SDS011;5597;47.588;9.642;2022-12-22T08:05:06;2.60;;;2.00;;
11086;SDS011;5597;47.588;9.642;2022-12-22T08:07:33;2.13;;;1.63;;
11086;SDS011;5597;47.588;9.642;2022-12-22T08:09:59;2.10;;;1.70;;
11086;SDS011;5597;47.588;9.642;2022-12-22T08:12:24;2.10;;;1.90;;
11086;SDS011;5597;47.588;9.642;2022-12-22T08:14:50;2.70;;;1.93;;
11086;SDS011;5597;47.588;9.642;2022-12-22T08:17:16;2.37;;;2.00;;
11086;SDS011;5597;47.588;9.642;2022-12-22T08:19:41;3.27;;;2.03;;
11086;SDS011;5597;47.588;9.642;2022-12-22T08:22:07;2.80;;;2.00;;
11086;SDS011;5597;47.588;9.642;2022-12-22T08:24:33;2.00;;;1.60;;
11086;SDS011;5597;47.588;9.642;2022-12-22T08:27:00;2.77;;;2.10;;
11086;SDS011;5597;47.588;9.642;2022-12-22T08:29:33;2.80;;;2.40;;
11086;SDS011;5597;47.588;9.642;2022-12-22T08:32:04;2.50;;;2.00;;
11086;SDS011;5597;47.588;9.642;2022-12-22T08:34:30;2.10;;;1.90;;
11086;SDS011;5597;47.588;9.642;2022-12-22T08:36:57;3.77;;;2.20;;
11086;SDS011;5597;47.588;9.642;2022-12-22T08:39:26;2.93;;;2.00;;
11086;SDS011;5597;47.588;9.642;2022-12-22T08:41:54;1.70;;;1.60;;
11086;SDS011;5597;47.588;9.642;2022-12-22T08:44:25;2.37;;;1.90;;
11086;SDS011;5597;47.588;9.642;2022-12-22T08:46:53;2.77;;;1.90;;
11086;SDS011;5597;47.588;9.642;2022-12-22T08:49:20;2.33;;;2.00;;
11086;SDS011;5597;47.588;9.642;2022-12-22T08:51:46;3.53;;;2.20;;
11086;SDS011;5597;47.588;9.642;2022-12-22T08:54:12;2.17;;;1.77;;
11086;SDS011;5597;47.588;9.642;2022-12-22T08:56:38;2.67;;;2.00;;
11086;SDS011;5597;47.588;9.642;2022-12-22T08:59:04;2.77;;;2.30;;
11086;SDS011;5597;47.588;9.642;2022-12-22T09:01:32;3.53;;;2.47;;
11086;SDS011;5597;47.588;9.642;2022-12-22T09:03:59;3.20;;;2.50;;
11086;SDS011;5597;47.588;9.642;2022-12-22T09:06:25;3.30;;;2.50;;
11086;SDS011;5597;47.588;9.642;2022-12-22T09:08:55;2.43;;;2.20;;
11086;SDS011;5597;47.588;9.642;2022-12-22T09:11:22;2.70;;;2.20;;
11086;SDS011;5597;47.588;9.642;2022-12-22T09:13:52;2.20;;;1.93;;
11086;SDS011;5597;47.588;9.642;2022-12-22T09:16:19;2.23;;;1.93;;
11086;SDS011;5597;47.588;9.642;2022-12-22T09:18:45;2.67;;;2.17;;
11086;SDS011;5597;47.588;9.642;2022-12-22T09:21:11;2.00;;;1.73;;
11086;SDS011;5597;47.588;9.642;2022-12-22T09:23:37;2.00;;;1.80;;
11086;SDS011;5597;47.588;9.642;2022-12-22T09:26:12;2.73;;;2.00;;
11086;SDS011;5597;47.588;9.642;2022-12-22T09:28:41;1.90;;;1.70;;
11086;SDS011;5597;47.588;9.642;2022-12-22T09:31:07;3.57;;;2.00;;
11086;SDS011;5597;47.588;9.642;2022-12-22T09:33:34;2.97;;;1.90;;
11086;SDS011;5597;47.588;9.642;2022-12-22T09:36:05;1.80;;;1.47;;
11086;SDS011;5597;47.588;9.642;2022-12-22T09:38:32;2.77;;;1.60;;
11086;SDS011;5597;47.588;9.642;2022-12-22T09:40:58;3.10;;;1.40;;
11086;SDS011;5597;47.588;9.642;2022-12-22T09:43:26;3.10;;;1.57;;
11086;SDS011;5597;47.588;9.642;2022-12-22T09:45:53;2.13;;;1.47;;
11086;SDS011;5597;47.588;9.642;2022-12-22T09:48:19;5.83;;;2.37;;
11086;SDS011;5597;47.588;9.642;2022-12-22T09:50:45;3.47;;;1.70;;
11086;SDS011;5597;47.588;9.642;2022-12-22T09:53:20;5.53;;;2.13;;
11086;SDS011;5597;47.588;9.642;2022-12-22T09:55:47;3.07;;;1.10;;
11086;SDS011;5597;47.588;9.642;2022-12-22T10:00:47;2.83;;;1.17;;
11086;SDS011;5597;47.588;9.642;2022-12-22T10:06:09;3.43;;;1.40;;
11086;SDS011;5597;47.588;9.642;2022-12-22T10:08:53;3.23;;;1.57;;
11086;SDS011;5597;47.588;9.642;2022-12-22T10:11:19;3.33;;;1.17;;
11086;SDS011;5597;47.588;9.642;2022-12-22T10:13:45;3.43;;;1.43;;
11086;SDS011;5597;47.588;9.642;2022-12-22T10:16:25;4.83;;;1.70;;
11086;SDS011;5597;47.588;9.642;2022-12-22T10:18:57;4.80;;;1.73;;
11086;SDS011;5597;47.588;9.642;2022-12-22T10:21:33;3.23;;;1.30;;
11086;SDS011;5597;47.588;9.642;2022-12-22T10:23:59;3.37;;;1.40;;
11086;SDS011;5597;47.588;9.642;2022-12-22T10:26:37;4.10;;;1.57;;
11086;SDS011;5597;47.588;9.642;2022-12-22T10:29:08;5.50;;;1.70;;
11086;SDS011;5597;47.588;9.642;2022-12-22T10:31:41;4.97;;;1.77;;
11086;SDS011;5597;47.588;9.642;2022-12-22T10:34:27;4.47;;;1.50;;
11086;SDS011;5597;47.588;9.642;2022-12-22T10:36:54;3.97;;;1.50;;
11086;SDS011;5597;47.588;9.642;2022-12-22T10:39:24;5.13;;;1.83;;
11086;SDS011;5597;47.588;9.642;2022-12-22T10:41:52;3.13;;;1.10;;
11086;SDS011;5597;47.588;9.642;2022-12-22T10:44:21;3.83;;;1.30;;
11086;SDS011;5597;47.588;9.642;2022-12-22T10:46:53;3.90;;;1.10;;
11086;SDS011;5597;47.588;9.642;2022-12-22T10:49:25;4.53;;;1.30;;
11086;SDS011;5597;47.588;9.642;2022-12-22T10:54:41;2.70;;;1.20;;
11086;SDS011;5597;47.588;9.642;2022-12-22T10:59:48;5.53;;;1.60;;
11086;SDS011;5597;47.588;9.642;2022-12-22T11:05:01;4.40;;;1.27;;
11086;SDS011;5597;47.588;9.642;2022-12-22T11:07:33;4.10;;;1.50;;
11086;SDS011;5597;47.588;9.642;2022-12-22T11:10:01;5.00;;;1.70;;
11086;SDS011;5597;47.588;9.642;2022-12-22T11:12:30;5.47;;;1.53;;
11086;SDS011;5597;47.588;9.642;2022-12-22T11:15:22;4.83;;;1.43;;
11086;SDS011;5597;47.588;9.642;2022-12-22T11:18:05;5.83;;;2.30;;
11086;SDS011;5597;47.588;9.642;2022-12-22T11:20:48;3.30;;;1.27;;
11086;SDS011;5597;47.588;9.642;2022-12-22T11:29:04;5.87;;;1.47;;
11086;SDS011;5597;47.588;9.642;2022-12-22T11:34:32;4.57;;;1.70;;
11086;SDS011;5597;47.588;9.642;2022-12-22T11:37:32;3.77;;;1.30;;
11086;SDS011;5597;47.588;9.642;2022-12-22T11:40:19;5.40;;;2.77;;
11086;SDS011;5597;47.588;9.642;2022-12-22T11:53:52;5.37;;;1.33;;
11086;SDS011;5597;47.588;9.642;2022-12-22T11:56:41;3.57;;;1.43;;
11086;SDS011;5597;47.588;9.642;2022-12-22T11:59:35;5.03;;;1.27;;
11086;SDS011;5597;47.588;9.642;2022-12-22T12:07:04;3.67;;;1.10;;
11086;SDS011;5597;47.588;9.642;2022-12-22T12:09:55;4.57;;;1.20;;
11086;SDS011;5597;47.588;9.642;2022-12-22T12:31:14;5.60;;;1.70;;
11086;SDS011;5597;47.588;9.642;2022-12-22T12:33:55;5.87;;;1.60;;
11086;SDS011;5597;47.588;9.642;2022-12-22T12:39:19;5.83;;;1.80;;
11086;SDS011;5597;47.588;9.642;2022-12-22T12:44:40;4.33;;;1.70;;
11086;SDS011;5597;47.588;9.642;2022-12-22T12:47:17;4.47;;;1.73;;
11086;SDS011;5597;47.588;9.642;2022-12-22T12:57:53;4.63;;;1.70;;
11086;SDS011;5597;47.588;9.642;2022-12-22T13:03:42;5.40;;;1.67;;
11086;SDS011;5597;47.588;9.642;2022-12-22T13:05:58;3.53;;;1.23;;
11086;SDS011;5597;47.588;9.642;2022-12-22T13:08:28;2.33;;;1.00;;
11086;SDS011;5597;47.588;9.642;2022-12-22T13:18:35;2.97;;;1.20;;
11086;SDS011;5597;47.588;9.642;2022-12-22T13:21:07;2.53;;;0.70;;
11086;SDS011;5597;47.588;9.642;2022-12-22T13:23:57;3.70;;;1.10;;
11086;SDS011;5597;47.588;9.642;2022-12-22T13:26:43;2.63;;;0.90;;
11086;SDS011;5597;47.588;9.642;2022-12-22T13:32:18;4.00;;;1.23;;
11086;SDS011;5597;47.588;9.642;2022-12-22T13:37:17;4.27;;;1.40;;
11086;SDS011;5597;47.588;9.642;2022-12-22T13:45:14;3.20;;;1.13;;
11086;SDS011;5597;47.588;9.642;2022-12-22T13:47:44;5.93;;;1.30;;
11086;SDS011;5597;47.588;9.642;2022-12-22T13:50:25;4.47;;;1.30;;
11086;SDS011;5597;47.588;9.642;2022-12-22T13:52:54;3.30;;;1.20;;
11086;SDS011;5597;47.588;9.642;2022-12-22T13:55:25;4.40;;;1.27;;
11086;SDS011;5597;47.588;9.642;2022-12-22T13:57:53;4.30;;;1.60;;
11086;SDS011;5597;47.588;9.642;2022-12-22T14:00:23;2.60;;;0.97;;
11086;SDS011;5597;47.588;9.642;2022-12-22T14:02:50;3.73;;;1.33;;
11086;SDS011;5597;47.588;9.642;2022-12-22T14:05:17;1.90;;;1.40;;
11086;SDS011;5597;47.588;9.642;2022-12-22T14:07:56;2.97;;;1.03;;
11086;SDS011;5597;47.588;9.642;2022-12-22T14:10:31;3.10;;;1.00;;
11086;SDS011;5597;47.588;9.642;2022-12-22T14:13:16;3.40;;;1.10;;
11086;SDS011;5597;47.588;9.642;2022-12-22T14:15:44;4.30;;;1.17;;
11086;SDS011;5597;47.588;9.642;2022-12-22T14:18:16;3.47;;;1.00;;
11086;SDS011;5597;47.588;9.642;2022-12-22T14:20:45;2.60;;;1.17;;
11086;SDS011;5597;47.588;9.642;2022-12-22T14:25:52;2.60;;;0.83;;
11086;SDS011;5597;47.588;9.642;2022-12-22T14:28:21;1.70;;;0.90;;
11086;SDS011;5597;47.588;9.642;2022-12-22T14:30:48;4.47;;;1.10;;
11086;SDS011;5597;47.588;9.642;2022-12-22T14:38:54;2.43;;;1.10;;
11086;SDS011;5597;47.588;9.642;2022-12-22T14:47:05;2.70;;;0.90;;
11086;SDS011;5597;47.588;9.642;2022-12-22T14:54:59;1.63;;;0.90;;
11086;SDS011;5597;47.588;9.642;2022-12-22T15:00:00;2.67;;;1.17;;
11086;SDS011;5597;47.588;9.642;2022-12-22T15:02:30;2.87;;;1.10;;
11086;SDS011;5597;47.588;9.642;2022-12-22T15:05:06;3.77;;;1.03;;
11086;SDS011;5597;47.588;9.642;2022-12-22T15:07:41;2.83;;;1.47;;
11086;SDS011;5597;47.588;9.642;2022-12-22T15:10:11;4.33;;;2.87;;
11086;SDS011;5597;47.588;9.642;2022-12-22T15:12:37;4.13;;;1.20;;
11086;SDS011;5597;47.588;9.642;2022-12-22T15:15:03;3.50;;;1.27;;
11086;SDS011;5597;47.588;9.642;2022-12-22T15:17:36;2.77;;;1.30;;
11086;SDS011;5597;47.588;9.642;2022-12-22T15:20:02;2.40;;;1.60;;
11086;SDS011;5597;47.588;9.642;2022-12-22T15:22:28;3.33;;;1.57;;
11086;SDS011;5597;47.588;9.642;2022-12-22T15:24:54;3.23;;;1.60;;
11086;SDS011;5597;47.588;9.642;2022-12-22T15:27:20;3.90;;;1.40;;
11086;SDS011;5597;47.588;9.642;2022-12-22T15:29:46;2.87;;;1.40;;
11086;SDS011;5597;47.588;9.642;2022-12-22T15:32:12;3.07;;;1.63;;
11086;SDS011;5597;47.588;9.642;2022-12-22T15:34:38;4.13;;;1.50;;
11086;SDS011;5597;47.588;9.642;2022-12-22T15:37:04;3.53;;;1.40;;
11086;SDS011;5597;47.588;9.642;2022-12-22T15:39:29;3.83;;;2.00;;
11086;SDS011;5597;47.588;9.642;2022-12-22T15:41:55;3.83;;;1.90;;
11086;SDS011;5597;47.588;9.642;2022-12-22T15:44:21;6.13;;;1.73;;
11086;SDS011;5597;47.588;9.642;2022-12-22T15:46:53;1.77;;;1.10;;
11086;SDS011;5597;47.588;9.642;2022-12-22T15:49:23;2.40;;;1.50;;
11086;SDS011;5597;47.588;9.642;2022-12-22T15:51:53;2.03;;;1.43;;
11086;SDS011;5597;47.588;9.642;2022-12-22T15:54:21;2.00;;;1.33;;
11086;SDS011;5597;47.588;9.642;2022-12-22T15:56:49;2.93;;;1.40;;
11086;SDS011;5597;47.588;9.642;2022-12-22T15:59:17;2.60;;;1.50;;
11086;SDS011;5597;47.588;9.642;2022-12-22T16:01:44;3.03;;;1.77;;
11086;SDS011;5597;47.588;9.642;2022-12-22T16:04:10;4.07;;;2.00;;
11086;SDS011;5597;47.588;9.642;2022-12-22T16:06:36;3.07;;;1.53;;
11086;SDS011;5597;47.588;9.642;2022-12-22T16:09:02;3.37;;;1.37;;
11086;SDS011;5597;47.588;9.642;2022-12-22T16:11:34;3.03;;;1.70;;
11086;SDS011;5597;47.588;9.642;2022-12-22T16:14:01;3.13;;;1.50;;
11086;SDS011;5597;47.588;9.642;2022-12-22T16:16:27;3.97;;;1.30;;
11086;SDS011;5597;47.588;9.642;2022-12-22T16:18:52;3.20;;;1.33;;
11086;SDS011;5597;47.588;9.642;2022-12-22T16:21:18;2.53;;;1.47;;
11086;SDS011;5597;47.588;9.642;2022-12-22T16:23:49;2.73;;;1.20;;
11086;SDS011;5597;47.588;9.642;2022-12-22T16:26:16;1.90;;;1.23;;
11086;SDS011;5597;47.588;9.642;2022-12-22T16:28:44;2.97;;;1.37;;
11086;SDS011;5597;47.588;9.642;2022-12-22T16:31:14;2.07;;;1.30;;
11086;SDS011;5597;47.588;9.642;2022-12-22T16:33:44;2.20;;;1.20;;
11086;SDS011;5597;47.588;9.642;2022-12-22T16:36:10;2.00;;;1.30;;
11086;SDS011;5597;47.588;9.642;2022-12-22T16:38:36;3.30;;;1.60;;
11086;SDS011;5597;47.588;9.642;2022-12-22T16:41:02;3.23;;;1.70;;
11086;SDS011;5597;47.588;9.642;2022-12-22T16:43:30;3.47;;;1.77;;
11086;SDS011;5597;47.588;9.642;2022-12-22T16:46:00;2.40;;;1.70;;
11086;SDS011;5597;47.588;9.642;2022-12-22T16:51:03;3.40;;;2.00;;
11086;SDS011;5597;47.588;9.642;2022-12-22T16:53:30;2.90;;;1.97;;
11086;SDS011;5597;47.588;9.642;2022-12-22T16:55:57;3.57;;;2.60;;
11086;SDS011;5597;47.588;9.642;2022-12-22T16:58:23;3.43;;;2.63;;
11086;SDS011;5597;47.588;9.642;2022-12-22T17:00:49;3.10;;;2.07;;
11086;SDS011;5597;47.588;9.642;2022-12-22T17:03:19;2.60;;;2.10;;
11086;SDS011;5597;47.588;9.642;2022-12-22T17:05:49;3.03;;;1.70;;
11086;SDS011;5597;47.588;9.642;2022-12-22T17:08:28;3.27;;;1.53;;
11086;SDS011;5597;47.588;9.642;2022-12-22T17:10:54;1.97;;;1.43;;
11086;SDS011;5597;47.588;9.642;2022-12-22T17:13:22;1.87;;;1.30;;
11086;SDS011;5597;47.588;9.642;2022-12-22T17:15:49;2.93;;;1.30;;
11086;SDS011;5597;47.588;9.642;2022-12-22T17:18:16;3.57;;;1.33;;
11086;SDS011;5597;47.588;9.642;2022-12-22T17:20:46;2.13;;;1.30;;
11086;SDS011;5597;47.588;9.642;2022-12-22T17:25:54;2.70;;;1.20;;
11086;SDS011;5597;47.588;9.642;2022-12-22T17:28:21;1.93;;;1.00;;
11086;SDS011;5597;47.588;9.642;2022-12-22T17:30:47;1.40;;;1.10;;
11086;SDS011;5597;47.588;9.642;2022-12-22T17:33:14;4.00;;;1.40;;
11086;SDS011;5597;47.588;9.642;2022-12-22T17:35:40;3.27;;;1.40;;
11086;SDS011;5597;47.588;9.642;2022-12-22T17:38:10;1.50;;;1.00;;
11086;SDS011;5597;47.588;9.642;2022-12-22T17:40:40;5.10;;;1.70;;
11086;SDS011;5597;47.588;9.642;2022-12-22T17:43:10;2.10;;;1.40;;
11086;SDS011;5597;47.588;9.642;2022-12-22T17:45:46;3.03;;;1.50;;
11086;SDS011;5597;47.588;9.642;2022-12-22T17:48:15;2.10;;;1.23;;
11086;SDS011;5597;47.588;9.642;2022-12-22T17:50:41;3.70;;;1.80;;